Washington, Mississippi
Current Conditions -  °F | °C
As of 4:55 PM on Tuesday 27 Jan 2015 (Local Time) from KHEZ Reporting Station
Clear Clear  
Wind Chill: 66°   Ceiling: Unl
Heat Index: 66°   Visibility: 10mi
Dew Point: 37°   Wind: 5mph
Humidity: 35%   Direction: 320°NW
Pressure: 30.12"   Gusts: NA
Location:  31.58°N, 91.3°W
Report Text: KHEZ 272255Z AUTO 32004KT 10SM CLR 19/03 A3012 RMK AO1
Loading
Personal Weather Stations






























Interactive Weather Map New forecast layout! Learn more

10-Day Weather Forecast

Advertisements
Track Severe Weather on mobile